createdAt,value
2023-03-20T00:00:36.012Z,43.50
2023-03-20T00:03:21.974Z,41.75
2023-03-20T00:06:37.122Z,43.42
2023-03-20T00:09:23.309Z,41.80
2023-03-20T00:12:15.880Z,45.33
2023-03-20T00:15:04.444Z,45.67
2023-03-20T00:17:50.356Z,46.03
2023-03-20T00:20:36.152Z,46.80
2023-03-20T00:23:22.826Z,48.28
2023-03-20T00:26:15.787Z,39.78
2023-03-20T00:29:04.159Z,44.42
2023-03-20T00:31:50.005Z,36.67
2023-03-20T00:34:36.489Z,47.20
2023-03-20T00:37:22.358Z,29.88
2023-03-20T00:40:09.586Z,31.85
2023-03-20T00:42:59.789Z,37.67
2023-03-20T00:45:45.823Z,29.30
2023-03-20T00:48:32.534Z,41.80
2023-03-20T00:51:19.359Z,35.20
2023-03-20T00:54:16.842Z,35.30
2023-03-20T00:57:35.585Z,38.53
2023-03-20T01:00:30.744Z,30.88
2023-03-20T01:03:25.765Z,42.28
2023-03-20T01:06:12.971Z,40.35
2023-03-20T01:08:58.728Z,51.53
2023-03-20T01:11:45.127Z,45.13
2023-03-20T01:14:31.260Z,46.13
2023-03-20T01:17:19.957Z,50.75
2023-03-20T01:20:14.329Z,42.60
2023-03-20T01:23:00.417Z,39.92
2023-03-20T01:25:46.257Z,35.00
2023-03-20T01:28:32.472Z,41.45
2023-03-20T01:31:19.066Z,34.17
2023-03-20T01:34:06.362Z,37.25
2023-03-20T01:36:54.384Z,36.15
2023-03-20T01:39:40.390Z,33.83
2023-03-20T01:42:26.196Z,32.53
2023-03-20T01:45:21.510Z,30.65
2023-03-20T01:48:17.700Z,29.73
2023-03-20T01:51:03.506Z,29.70
2023-03-20T01:53:53.531Z,26.83
2023-03-20T01:56:43.597Z,27.90
2023-03-20T01:59:30.268Z,27.55
2023-03-20T02:02:20.541Z,35.22
2023-03-20T02:05:09.624Z,31.00
2023-03-20T02:08:26.159Z,27.02
2023-03-20T02:11:13.163Z,27.73
2023-03-20T02:14:00.295Z,33.20
2023-03-20T02:16:51.259Z,31.00
2023-03-20T02:20:17.930Z,34.42
2023-03-20T02:26:37.057Z,29.48
2023-03-20T02:29:42.497Z,34.83
2023-03-20T02:32:41.295Z,29.95
2023-03-20T02:35:52.652Z,26.67
2023-03-20T02:39:00.349Z,25.45
2023-03-20T02:41:46.447Z,28.20
2023-03-20T02:44:51.468Z,29.30
2023-03-20T02:47:44.693Z,25.75
2023-03-20T02:50:38.805Z,25.25
2023-03-20T02:53:41.676Z,25.55
2023-03-20T02:56:46.252Z,25.77
2023-03-20T02:59:37.774Z,27.52
2023-03-20T03:02:37.840Z,35.05
2023-03-20T03:05:37.118Z,21.08
2023-03-20T03:08:26.307Z,31.95
2023-03-20T03:11:12.892Z,21.17
2023-03-20T03:13:59.207Z,25.55
2023-03-20T03:16:46.695Z,21.80
2023-03-20T03:19:34.125Z,20.60
2023-03-20T03:22:21.260Z,25.13
2023-03-20T03:25:07.359Z,28.58
2023-03-20T03:28:18.936Z,26.30
2023-03-20T03:31:13.740Z,31.65
2023-03-20T03:34:00.350Z,21.58
2023-03-20T03:37:00.980Z,23.52
2023-03-20T03:39:54.130Z,18.00
2023-03-20T03:43:04.590Z,21.42
2023-03-20T03:45:55.113Z,20.00
2023-03-20T03:48:45.509Z,24.50
2023-03-20T03:51:34.583Z,25.48
2023-03-20T03:54:42.202Z,24.92
2023-03-20T03:57:58.178Z,23.95
2023-03-20T04:00:46.341Z,20.75
2023-03-20T04:03:35.907Z,22.50
2023-03-20T04:06:22.105Z,24.92
2023-03-20T04:09:09.675Z,23.75
2023-03-20T04:11:55.398Z,28.08
2023-03-20T04:14:41.245Z,25.10
2023-03-20T04:17:27.276Z,25.23
2023-03-20T04:20:13.713Z,19.65
2023-03-20T04:22:59.674Z,17.92
2023-03-20T04:25:45.631Z,20.63
2023-03-20T04:28:34.376Z,23.85
2023-03-20T04:31:43.671Z,21.88
2023-03-20T04:34:37.940Z,25.65
2023-03-20T04:37:33.160Z,28.90
2023-03-20T04:40:27.256Z,21.30
2023-03-20T04:43:14.629Z,21.77
2023-03-20T04:46:00.860Z,29.83
2023-03-20T04:48:46.934Z,24.65
2023-03-20T04:51:33.753Z,25.02
2023-03-20T04:54:19.876Z,28.27
2023-03-20T04:57:06.268Z,29.10
2023-03-20T04:59:53.112Z,25.70
2023-03-20T05:02:38.989Z,23.63
2023-03-20T05:05:26.284Z,25.95
2023-03-20T05:08:13.412Z,23.58
2023-03-20T05:10:59.813Z,24.65
2023-03-20T05:14:24.304Z,25.70
2023-03-20T05:17:41.274Z,35.42
2023-03-20T05:20:50.900Z,27.77
2023-03-20T05:24:09.194Z,33.65
2023-03-20T05:27:15.035Z,39.13
2023-03-20T05:30:19.834Z,43.65
2023-03-20T05:33:05.701Z,42.78
2023-03-20T05:36:12.208Z,21.85
2023-03-20T05:39:27.641Z,32.67
2023-03-20T05:42:27.741Z,27.83
2023-03-20T05:45:37.164Z,28.02
2023-03-20T05:48:47.611Z,40.17
2023-03-20T05:52:06.545Z,30.67
2023-03-20T05:55:20.798Z,28.38
2023-03-20T05:58:26.359Z,31.05
2023-03-20T06:01:28.076Z,27.42
2023-03-20T06:04:26.062Z,36.00
2023-03-20T06:07:30.361Z,35.97
2023-03-20T06:10:21.711Z,25.80
2023-03-20T06:13:09.444Z,27.92
2023-03-20T06:15:56.382Z,28.52
2023-03-20T06:18:42.760Z,32.75
2023-03-20T06:21:28.664Z,42.15
2023-03-20T06:24:14.619Z,32.92
2023-03-20T06:27:00.794Z,49.92
2023-03-20T06:29:47.650Z,44.25
2023-03-20T06:32:37.384Z,37.83
2023-03-20T06:35:30.740Z,44.90
2023-03-20T06:38:16.821Z,28.48
2023-03-20T06:41:03.051Z,33.70
2023-03-20T06:43:49.663Z,47.63
2023-03-20T06:46:38.686Z,40.05
2023-03-20T06:49:25.444Z,35.17
2023-03-20T06:52:19.921Z,44.72
2023-03-20T06:55:16.328Z,47.58
2023-03-20T06:58:03.897Z,46.30
2023-03-20T07:00:52.283Z,40.85
2023-03-20T07:03:40.178Z,45.75
2023-03-20T07:06:28.122Z,44.15
2023-03-20T07:09:13.996Z,49.05
2023-03-20T07:12:00.146Z,45.72
2023-03-20T07:14:46.635Z,39.60
2023-03-20T07:17:37.501Z,36.67
2023-03-20T07:20:23.287Z,41.33
2023-03-20T07:23:09.391Z,36.00
2023-03-20T07:25:55.575Z,48.53
2023-03-20T07:28:41.500Z,37.33
2023-03-20T07:31:37.195Z,36.58
2023-03-20T07:34:33.163Z,38.10
2023-03-20T07:37:20.015Z,31.48
2023-03-20T07:40:16.977Z,72.95
2023-03-20T07:43:33.553Z,47.08
2023-03-20T07:46:49.265Z,62.95
2023-03-20T07:49:35.582Z,52.78
2023-03-20T07:52:21.664Z,49.58
2023-03-20T07:55:07.811Z,29.27
2023-03-20T07:57:53.921Z,27.52
2023-03-20T08:00:40.692Z,27.98
2023-03-20T08:03:26.814Z,27.60
2023-03-20T08:06:12.414Z,34.10
2023-03-20T08:08:58.735Z,75.38
2023-03-20T08:11:44.621Z,62.47
2023-03-20T08:14:30.684Z,75.88
2023-03-20T08:17:19.376Z,50.75
2023-03-20T08:20:07.303Z,59.22
2023-03-20T08:22:53.299Z,36.22
2023-03-20T08:25:39.318Z,38.75
2023-03-20T08:28:44.040Z,43.50
2023-03-20T08:31:31.684Z,44.72
2023-03-20T08:34:17.901Z,55.58
2023-03-20T08:38:10.214Z,63.50
2023-03-20T08:40:56.230Z,37.10
2023-03-20T08:43:46.314Z,50.70
2023-03-20T08:46:32.746Z,42.05
2023-03-20T08:49:18.554Z,33.65
2023-03-20T08:52:04.482Z,35.67
2023-03-20T08:54:50.294Z,47.80
2023-03-20T08:57:35.962Z,43.15
2023-03-20T09:00:22.577Z,62.22
2023-03-20T09:03:14.851Z,71.25
2023-03-20T09:06:01.128Z,48.53
2023-03-20T09:08:47.131Z,33.67
2023-03-20T09:11:36.122Z,43.63
2023-03-20T09:14:22.699Z,44.30
2023-03-20T09:17:08.434Z,32.80
2023-03-20T09:19:54.252Z,34.00
2023-03-20T09:22:41.449Z,28.40
2023-03-20T09:25:27.575Z,28.67
2023-03-20T09:28:14.053Z,24.42
2023-03-20T09:31:00.210Z,31.50
2023-03-20T09:33:46.524Z,28.35
2023-03-20T09:36:33.125Z,26.15
2023-03-20T09:39:21.415Z,27.25
2023-03-20T09:42:31.449Z,24.75
2023-03-20T09:45:20.239Z,44.38
2023-03-20T09:48:24.532Z,19.13
2023-03-20T09:54:25.226Z,18.50
2023-03-20T09:57:27.094Z,34.47
2023-03-20T10:00:19.525Z,29.77
2023-03-20T10:03:10.301Z,23.48
2023-03-20T10:06:09.703Z,29.38
2023-03-20T10:08:55.560Z,27.52
2023-03-20T10:12:08.428Z,20.95
2023-03-20T10:15:21.897Z,41.55
2023-03-20T10:18:26.000Z,25.65
2023-03-20T10:21:26.828Z,29.33
2023-03-20T10:24:29.993Z,88.68
2023-03-20T10:27:42.308Z,67.68
2023-03-20T10:30:56.333Z,54.80
2023-03-20T10:34:05.147Z,21.10
2023-03-20T10:37:00.487Z,19.80
2023-03-20T10:39:57.874Z,23.33
2023-03-20T10:42:45.886Z,35.72
2023-03-20T10:45:53.801Z,40.33
2023-03-20T10:49:04.184Z,37.83
2023-03-20T10:51:52.944Z,23.73
2023-03-20T10:54:45.741Z,15.32
2023-03-20T10:57:36.483Z,14.95
2023-03-20T11:00:25.043Z,44.78
2023-03-20T11:03:24.888Z,24.77
2023-03-20T11:06:24.267Z,23.73
2023-03-20T11:09:20.435Z,17.48
2023-03-20T11:12:18.389Z,25.45
2023-03-20T11:15:34.839Z,57.85
2023-03-20T11:18:20.832Z,28.25
2023-03-20T11:21:09.028Z,14.10
2023-03-20T11:23:55.202Z,24.10
2023-03-20T11:26:42.913Z,18.20
2023-03-20T11:29:35.284Z,15.77
2023-03-20T11:32:35.985Z,14.70
2023-03-20T11:35:27.876Z,16.73
2023-03-20T11:38:20.322Z,17.98
2023-03-20T11:41:22.255Z,18.65
2023-03-20T11:44:28.146Z,18.48
2023-03-20T11:47:19.519Z,18.20
2023-03-20T11:50:07.343Z,17.10
2023-03-20T11:52:54.159Z,14.48
2023-03-20T11:55:39.810Z,12.40
2023-03-20T11:58:25.643Z,12.00
2023-03-20T12:01:12.650Z,17.33
2023-03-20T12:03:58.089Z,14.73
2023-03-20T12:06:46.984Z,13.68
2023-03-20T12:09:49.772Z,15.25
2023-03-20T12:12:41.030Z,11.68
2023-03-20T12:15:39.002Z,13.85
2023-03-20T12:18:36.950Z,13.13
2023-03-20T12:21:37.683Z,11.35
2023-03-20T12:24:42.408Z,14.07
2023-03-20T12:27:36.093Z,10.60
2023-03-20T12:30:50.074Z,13.68
2023-03-20T12:33:47.806Z,10.05
2023-03-20T12:36:41.413Z,10.55
2023-03-20T12:39:34.427Z,14.50
2023-03-20T12:42:48.197Z,7.90
2023-03-20T12:46:25.266Z,12.70
2023-03-20T12:49:17.195Z,7.45
2023-03-20T12:52:32.845Z,21.23
2023-03-20T12:55:18.695Z,29.13
2023-03-20T12:58:15.564Z,15.65
2023-03-20T13:01:09.380Z,8.70
2023-03-20T13:04:10.000Z,9.15
2023-03-20T13:07:03.832Z,9.38
2023-03-20T13:10:02.139Z,13.23
2023-03-20T13:13:06.372Z,9.95
2023-03-20T13:15:56.652Z,9.98
2023-03-20T13:19:12.767Z,11.70
2023-03-20T13:22:21.914Z,9.48
2023-03-20T13:25:23.065Z,9.40
2023-03-20T13:28:44.271Z,10.45
2023-03-20T13:31:48.604Z,14.70
2023-03-20T13:35:23.538Z,9.02
2023-03-20T13:38:25.359Z,7.50
2023-03-20T13:41:11.267Z,12.70
2023-03-20T13:44:01.326Z,15.68
2023-03-20T13:46:51.176Z,16.75
2023-03-20T13:50:09.788Z,21.10
2023-03-20T13:53:20.002Z,13.38
2023-03-20T13:56:29.608Z,10.80
2023-03-20T13:59:37.511Z,14.88
2023-03-20T14:02:45.035Z,19.10
2023-03-20T14:05:36.468Z,15.18
2023-03-20T14:08:30.838Z,11.43
2023-03-20T14:11:24.316Z,12.15
2023-03-20T14:14:23.959Z,14.50
2023-03-20T14:17:19.169Z,7.97
2023-03-20T14:20:20.861Z,11.18
2023-03-20T14:23:08.084Z,7.90
2023-03-20T14:25:54.838Z,10.32
2023-03-20T14:29:00.102Z,10.63
2023-03-20T14:31:49.641Z,10.93
2023-03-20T14:34:49.289Z,11.27
2023-03-20T14:37:58.496Z,7.22
2023-03-20T14:41:11.932Z,11.70
2023-03-20T14:44:16.603Z,11.75
2023-03-20T14:47:11.131Z,9.45
2023-03-20T14:50:20.711Z,18.17
2023-03-20T14:53:21.196Z,10.95
2023-03-20T14:56:11.122Z,10.32
2023-03-20T14:59:00.264Z,11.93
2023-03-20T15:01:55.844Z,13.00
2023-03-20T15:04:42.795Z,20.58
2023-03-20T15:07:36.398Z,25.85
2023-03-20T15:13:08.528Z,18.50
2023-03-20T15:15:59.969Z,14.27
2023-03-20T15:18:52.872Z,14.95
2023-03-20T15:21:41.480Z,18.35
2023-03-20T15:24:29.687Z,20.05
2023-03-20T15:27:16.179Z,18.35
2023-03-20T15:30:02.633Z,17.40
2023-03-20T15:32:49.973Z,18.88
2023-03-20T15:35:36.714Z,22.23
2023-03-20T15:38:23.262Z,19.08
2023-03-20T15:41:09.064Z,19.65
2023-03-20T15:44:23.216Z,22.95
2023-03-20T15:50:12.848Z,49.72
2023-03-20T15:52:59.069Z,25.38
2023-03-20T15:55:50.839Z,32.55
2023-03-20T15:58:36.939Z,40.38
2023-03-20T16:01:25.222Z,33.55
2023-03-20T16:04:15.301Z,48.08
2023-03-20T16:07:01.706Z,40.47
2023-03-20T16:09:49.696Z,46.28
2023-03-20T16:12:35.689Z,41.00
2023-03-20T16:15:25.595Z,33.90
2023-03-20T16:18:15.072Z,40.70
2023-03-20T16:21:05.646Z,41.95
2023-03-20T16:23:54.168Z,42.97
2023-03-20T16:26:44.592Z,48.85
2023-03-20T16:29:30.971Z,56.85
2023-03-20T16:32:31.239Z,54.67
2023-03-20T16:35:20.447Z,30.48
2023-03-20T16:38:29.539Z,42.15
2023-03-20T16:41:15.715Z,75.30
2023-03-20T16:44:12.030Z,50.92
2023-03-20T16:47:18.344Z,50.10
2023-03-20T16:50:37.778Z,51.83
2023-03-20T16:53:24.939Z,55.85
2023-03-20T16:56:16.553Z,57.97
2023-03-20T16:59:10.351Z,44.65
2023-03-20T17:01:59.920Z,41.38
2023-03-20T17:04:48.046Z,46.90
2023-03-20T17:07:34.370Z,41.65
2023-03-20T17:10:21.829Z,39.42
2023-03-20T17:13:08.765Z,59.28
2023-03-20T17:15:55.008Z,76.28
2023-03-20T17:18:40.961Z,52.13
2023-03-20T17:21:27.457Z,42.60
2023-03-20T17:24:14.993Z,95.95
2023-03-20T17:27:01.135Z,108.82
2023-03-20T17:29:49.296Z,93.35
2023-03-20T17:32:35.462Z,45.60
2023-03-20T17:35:21.480Z,68.30
2023-03-20T17:38:12.352Z,58.25
2023-03-20T17:40:58.184Z,82.70
2023-03-20T17:43:45.222Z,58.47
2023-03-20T17:46:33.330Z,70.70
2023-03-20T17:49:26.973Z,65.72
2023-03-20T17:52:17.899Z,73.35
2023-03-20T17:55:03.844Z,91.40
2023-03-20T17:57:49.843Z,84.82
2023-03-20T18:00:36.454Z,90.75
2023-03-20T18:03:22.511Z,91.13
2023-03-20T18:06:17.736Z,51.90
2023-03-20T18:09:04.526Z,50.90
2023-03-20T18:11:50.684Z,48.33
2023-03-20T18:14:36.648Z,42.30
2023-03-20T18:17:22.326Z,41.78
2023-03-20T18:20:22.656Z,37.83
2023-03-20T18:23:09.161Z,35.65
2023-03-20T18:25:55.190Z,38.42
2023-03-20T18:28:40.905Z,45.72
2023-03-20T18:31:26.994Z,43.75
2023-03-20T18:34:12.590Z,48.35
2023-03-20T18:36:58.612Z,39.00
2023-03-20T18:39:44.810Z,53.50
2023-03-20T18:42:31.144Z,73.32
2023-03-20T18:45:17.305Z,53.85
2023-03-20T18:48:03.970Z,58.13
2023-03-20T18:50:51.116Z,79.97
2023-03-20T18:53:37.148Z,59.63
2023-03-20T18:56:25.484Z,42.05
2023-03-20T18:59:13.033Z,64.05
2023-03-20T19:01:58.818Z,53.85
2023-03-20T19:04:44.733Z,55.40
2023-03-20T19:07:30.580Z,57.97
2023-03-20T19:10:36.689Z,47.50
2023-03-20T19:13:22.832Z,63.95
2023-03-20T19:16:19.336Z,59.22
2023-03-20T19:19:07.746Z,76.28
2023-03-20T19:21:56.118Z,102.85
2023-03-20T19:24:42.705Z,88.07
2023-03-20T19:27:28.526Z,75.78
2023-03-20T19:30:25.513Z,83.75
2023-03-20T19:33:11.386Z,63.00
2023-03-20T19:36:04.843Z,64.38
2023-03-20T19:38:51.395Z,48.25
2023-03-20T19:41:37.987Z,30.15
2023-03-20T19:44:24.083Z,38.97
2023-03-20T19:47:10.404Z,36.63
2023-03-20T19:49:56.230Z,56.72
2023-03-20T19:52:41.856Z,52.17
2023-03-20T19:55:28.893Z,55.10
2023-03-20T19:58:15.005Z,47.45
2023-03-20T20:01:00.890Z,49.13
2023-03-20T20:03:47.058Z,51.80
2023-03-20T20:06:33.335Z,30.15
2023-03-20T20:09:19.451Z,48.00
2023-03-20T20:12:05.757Z,32.70
2023-03-20T20:14:52.127Z,27.33
2023-03-20T20:17:37.867Z,34.67
2023-03-20T20:20:25.236Z,31.63
2023-03-20T20:23:15.724Z,26.42
2023-03-20T20:26:04.954Z,30.63
2023-03-20T20:28:51.046Z,26.08
2023-03-20T20:31:36.966Z,21.13
2023-03-20T20:35:22.446Z,46.30
2023-03-20T20:40:35.748Z,28.38
2023-03-20T20:43:43.928Z,32.20
2023-03-20T20:46:28.212Z,39.30
2023-03-20T20:49:19.403Z,41.38
2023-03-20T20:52:06.466Z,53.90
2023-03-20T20:54:52.395Z,54.17
2023-03-20T20:57:38.232Z,48.78
2023-03-20T21:00:37.207Z,30.75
2023-03-20T21:03:29.062Z,43.50
2023-03-20T21:06:14.934Z,51.05
2023-03-20T21:09:01.036Z,41.25
2023-03-20T21:11:47.104Z,43.60
2023-03-20T21:14:32.952Z,30.33
2023-03-20T21:17:20.458Z,44.08
2023-03-20T21:20:13.213Z,33.47
2023-03-20T21:23:00.773Z,32.83
2023-03-20T21:25:47.980Z,33.42
2023-03-20T21:28:36.158Z,28.23
2023-03-20T21:31:28.071Z,22.08
2023-03-20T21:34:16.541Z,19.92
2023-03-20T21:37:56.146Z,23.58
2023-03-20T21:40:09.945Z,40.03
2023-03-20T21:42:57.886Z,28.65
2023-03-20T21:46:37.451Z,29.55
2023-03-20T21:55:52.321Z,46.78
2023-03-20T21:58:51.756Z,24.95
2023-03-20T22:14:34.028Z,24.08
2023-03-20T22:27:01.537Z,34.70
2023-03-20T22:30:00.636Z,29.40
2023-03-20T22:33:22.407Z,24.10
2023-03-20T22:39:11.693Z,32.60
2023-03-20T22:45:00.590Z,28.90
2023-03-20T22:47:47.656Z,26.50
2023-03-20T22:50:33.338Z,34.72
2023-03-20T22:53:19.250Z,33.03
2023-03-20T22:56:06.913Z,33.20
2023-03-20T22:58:53.848Z,36.08
2023-03-20T23:01:40.248Z,24.13
2023-03-20T23:04:27.448Z,25.25
2023-03-20T23:07:14.491Z,25.45
2023-03-20T23:10:00.910Z,24.23
2023-03-20T23:12:46.922Z,21.67
2023-03-20T23:15:32.689Z,25.73
2023-03-20T23:18:18.410Z,26.20
2023-03-20T23:21:05.035Z,22.58
2023-03-20T23:23:50.818Z,26.02
2023-03-20T23:26:36.640Z,25.67
2023-03-20T23:29:22.317Z,30.67
2023-03-20T23:32:08.086Z,33.60
2023-03-20T23:34:53.681Z,35.10
2023-03-20T23:37:39.425Z,37.83
2023-03-20T23:40:25.602Z,20.35
2023-03-20T23:43:11.378Z,14.27
2023-03-20T23:45:58.584Z,19.50
2023-03-20T23:48:45.727Z,18.85
2023-03-20T23:51:31.408Z,15.68
2023-03-20T23:54:17.176Z,20.13
2023-03-20T23:57:02.870Z,24.67
2023-03-20T23:59:48.702Z,19.77
